Time;durP1;ratioP1;P1;durP2;ratioP2;P2;SDS_P1;SDS_P2;PMS_P1;PMS_P2;Temp;Humidity;BMP_temperature;BMP_pressure;BME280_temperature;BME280_humidity;BME280_pressure;Samples;Min_cycle;Max_cycle;Signal;HPM_P1;HPM_P2
2020/12/11 00:00:05;;;;;;;36.58;33.72;;;4.30;81.10;;;;;;5015385;28;20200;-77
2020/12/11 00:02:34;;;;;;;38.00;34.88;;;4.30;79.60;;;;;;5015201;28;20216;-77
2020/12/11 00:05:01;;;;;;;39.35;36.25;;;4.30;80.20;;;;;;5014993;28;20213;-77
2020/12/11 00:07:27;;;;;;;37.58;34.28;;;4.20;85.40;;;;;;5015055;28;20313;-77
2020/12/11 00:09:54;;;;;;;38.80;34.65;;;4.20;84.50;;;;;;5014879;28;20671;-77
2020/12/11 00:12:21;;;;;;;36.45;33.28;;;4.10;84.40;;;;;;5014770;28;20190;-77
2020/12/11 00:14:47;;;;;;;107.18;40.25;;;4.20;89.20;;;;;;4998435;28;20192;-77
2020/12/11 00:17:13;;;;;;;36.58;33.67;;;4.20;87.10;;;;;;5014823;28;20628;-77
2020/12/11 00:19:40;;;;;;;36.65;33.60;;;4.20;85.40;;;;;;5014937;28;20738;-77
2020/12/11 00:22:06;;;;;;;36.45;33.60;;;4.20;83.40;;;;;;5014788;28;20208;-77
2020/12/11 00:24:32;;;;;;;36.03;33.28;;;4.20;84.20;;;;;;5014696;28;20194;-77
2020/12/11 00:27:00;;;;;;;35.97;33.08;;;4.10;82.30;;;;;;5014602;28;20237;-77
2020/12/11 00:29:26;;;;;;;35.30;32.70;;;4.20;81.70;;;;;;5015431;28;20206;-77
2020/12/11 00:31:52;;;;;;;36.65;33.85;;;4.30;82.30;;;;;;5016134;28;20556;-77
2020/12/11 00:34:18;;;;;;;36.10;33.25;;;4.20;80.50;;;;;;5015112;28;20198;-78
2020/12/11 00:36:45;;;;;;;36.80;33.85;;;4.10;80.10;;;;;;5014614;28;20232;-77
2020/12/11 00:39:11;;;;;;;35.22;32.50;;;4.00;80.80;;;;;;5014593;28;20675;-77
2020/12/11 00:41:39;;;;;;;36.40;33.33;;;4.00;81.00;;;;;;5014240;28;20190;-77
2020/12/11 00:44:07;;;;;;;36.10;33.40;;;4.10;82.10;;;;;;5014363;28;20229;-77
2020/12/11 00:46:33;;;;;;;37.58;34.58;;;4.10;81.50;;;;;;5014226;28;20222;-77
2020/12/11 00:48:59;;;;;;;34.65;31.83;;;4.20;80.30;;;;;;5014334;28;20202;-77
2020/12/11 00:51:26;;;;;;;49.72;34.13;;;4.10;82.60;;;;;;5014112;28;20198;-77
2020/12/11 00:53:52;;;;;;;34.80;32.20;;;4.10;83.00;;;;;;5014350;28;20200;-77
2020/12/11 00:56:18;;;;;;;34.35;31.73;;;4.00;81.30;;;;;;5014013;28;20222;-77
2020/12/11 00:58:45;;;;;;;32.47;30.13;;;4.10;80.50;;;;;;5013301;28;20204;-77
2020/12/11 01:01:12;;;;;;;33.10;30.70;;;4.10;79.30;;;;;;5013897;28;20198;-77
2020/12/11 01:03:38;;;;;;;32.70;30.40;;;4.00;79.40;;;;;;5013994;28;20222;-77
2020/12/11 01:06:05;;;;;;;34.08;31.65;;;4.00;79.20;;;;;;5013755;28;20727;-77
2020/12/11 01:08:31;;;;;;;33.53;31.10;;;4.10;78.60;;;;;;5013895;28;20667;-77
2020/12/11 01:10:57;;;;;;;49.17;32.45;;;4.00;79.30;;;;;;5013835;28;20634;-77
2020/12/11 01:13:24;;;;;;;50.03;33.58;;;4.00;79.30;;;;;;5013763;28;20209;-77
2020/12/11 01:15:50;;;;;;;34.10;31.40;;;3.90;83.20;;;;;;5013410;28;20197;-77
2020/12/11 01:18:17;;;;;;;35.20;32.60;;;3.90;81.00;;;;;;5013859;28;20198;-77
2020/12/11 01:20:44;;;;;;;33.72;31.23;;;3.90;81.70;;;;;;5013718;28;20206;-77
2020/12/11 01:23:10;;;;;;;35.25;31.98;;;3.80;83.30;;;;;;5013088;28;20575;-77
2020/12/11 01:25:36;;;;;;;33.13;30.50;;;3.80;86.90;;;;;;5013292;28;20198;-76
2020/12/11 01:28:04;;;;;;;33.47;30.70;;;3.70;87.60;;;;;;5013425;28;20197;-77
2020/12/11 01:30:30;;;;;;;31.60;29.13;;;3.70;86.70;;;;;;5013680;28;20260;-77
2020/12/11 01:32:56;;;;;;;32.50;30.20;;;3.70;85.20;;;;;;5013416;28;20213;-77
2020/12/11 01:35:24;;;;;;;32.03;29.77;;;3.80;80.60;;;;;;5013246;28;20660;-77
2020/12/11 01:37:50;;;;;;;32.58;30.20;;;3.80;80.10;;;;;;5012907;28;20214;-77
2020/12/11 01:40:16;;;;;;;34.33;31.73;;;3.70;80.00;;;;;;5013473;28;20552;-77
2020/12/11 01:42:43;;;;;;;32.92;30.52;;;3.50;80.40;;;;;;5013399;28;20218;-77
2020/12/11 01:45:09;;;;;;;32.50;30.23;;;3.50;80.20;;;;;;5013379;28;20216;-77
2020/12/11 01:47:39;;;;;;;32.72;30.23;;;3.60;79.80;;;;;;5012815;28;20236;-77
2020/12/11 01:50:07;;;;;;;33.80;31.30;;;3.60;80.30;;;;;;5013410;28;20209;-77
2020/12/11 01:52:35;;;;;;;32.33;30.02;;;3.70;80.00;;;;;;5013601;28;20198;-77
2020/12/11 01:55:01;;;;;;;32.42;30.13;;;3.60;80.00;;;;;;5013653;28;20198;-77
2020/12/11 01:57:34;;;;;;;34.65;32.00;;;3.50;82.40;;;;;;5012512;28;20214;-77
2020/12/11 02:00:05;;;;;;;34.08;31.58;;;3.40;85.40;;;;;;5013312;28;20256;-77
2020/12/11 02:02:36;;;;;;;34.55;32.05;;;3.40;81.70;;;;;;5012285;28;20202;-77
2020/12/11 02:05:05;;;;;;;33.17;30.58;;;3.40;81.00;;;;;;5013078;28;20668;-77
2020/12/11 02:07:38;;;;;;;35.45;32.85;;;3.40;80.60;;;;;;5012816;28;20222;-77
2020/12/11 02:10:05;;;;;;;34.00;31.60;;;3.30;80.80;;;;;;5012388;28;20194;-77
2020/12/11 02:12:32;;;;;;;33.78;31.08;;;3.30;82.10;;;;;;5013079;28;20198;-77
2020/12/11 02:14:58;;;;;;;34.20;31.67;;;3.40;81.20;;;;;;5012867;28;20193;-77
2020/12/11 02:17:26;;;;;;;35.30;32.65;;;3.30;81.70;;;;;;5012480;28;20214;-77
2020/12/11 02:19:53;;;;;;;35.60;32.33;;;3.30;81.20;;;;;;5012856;28;20245;-77
2020/12/11 02:22:20;;;;;;;35.03;32.33;;;3.20;86.40;;;;;;5012567;28;20198;-77
2020/12/11 02:24:47;;;;;;;32.85;30.35;;;3.20;84.70;;;;;;5013142;28;20209;-77
2020/12/11 02:27:13;;;;;;;33.92;31.27;;;3.30;85.40;;;;;;5012637;28;20218;-77
2020/12/11 02:29:39;;;;;;;35.08;32.35;;;3.20;83.00;;;;;;5012739;28;20201;-77
2020/12/11 02:32:06;;;;;;;34.28;31.67;;;3.10;82.80;;;;;;5012818;28;20198;-77
2020/12/11 02:34:32;;;;;;;35.63;32.80;;;3.00;86.20;;;;;;5012733;28;20198;-77
2020/12/11 02:37:00;;;;;;;35.63;32.92;;;3.00;84.60;;;;;;5012463;28;20225;-77
2020/12/11 02:39:28;;;;;;;35.03;32.30;;;3.10;82.70;;;;;;5012619;28;20194;-77
2020/12/11 02:41:54;;;;;;;35.65;32.85;;;2.90;82.70;;;;;;5012506;28;20190;-77
2020/12/11 02:44:21;;;;;;;32.60;30.10;;;2.90;82.40;;;;;;5012653;28;20227;-77
2020/12/11 02:46:47;;;;;;;41.30;33.00;;;2.90;82.30;;;;;;5012610;28;20224;-77
2020/12/11 02:49:13;;;;;;;41.45;34.20;;;2.80;83.00;;;;;;5012416;28;20208;-77
2020/12/11 02:51:40;;;;;;;58.03;35.72;;;2.80;85.60;;;;;;5012675;28;20224;-77
2020/12/11 02:54:06;;;;;;;228.23;51.03;;;2.80;85.50;;;;;;5012688;28;20280;-77
2020/12/11 02:56:34;;;;;;;33.85;31.10;;;2.70;88.00;;;;;;5012543;28;20305;-77
2020/12/11 02:59:00;;;;;;;33.83;31.13;;;2.70;85.80;;;;;;5012402;28;20200;-77
2020/12/11 03:01:27;;;;;;;33.63;30.92;;;2.70;86.50;;;;;;5012788;28;20198;-77
2020/12/11 03:03:55;;;;;;;34.80;32.10;;;2.70;85.10;;;;;;5012575;28;20221;-77
2020/12/11 03:06:25;;;;;;;34.15;31.55;;;2.80;84.00;;;;;;5012254;28;20650;-77
2020/12/11 03:08:52;;;;;;;33.65;31.15;;;2.70;83.20;;;;;;5012311;28;20241;-77
2020/12/11 03:11:18;;;;;;;33.80;31.20;;;2.80;82.80;;;;;;5012407;28;20205;-77
2020/12/11 03:13:46;;;;;;;33.85;31.15;;;2.90;82.30;;;;;;5012651;28;20545;-77
2020/12/11 03:16:13;;;;;;;35.40;32.60;;;2.80;82.40;;;;;;5012125;28;20214;-77
2020/12/11 03:18:39;;;;;;;33.53;30.88;;;2.90;82.80;;;;;;5012059;28;20201;-77
2020/12/11 03:21:06;;;;;;;36.42;33.35;;;2.80;82.30;;;;;;5012091;28;20197;-77
2020/12/11 03:23:32;;;;;;;38.20;35.30;;;2.80;82.50;;;;;;5014541;28;20304;-77
2020/12/11 03:25:58;;;;;;;36.25;33.45;;;2.70;83.00;;;;;;5015797;28;20225;-77
2020/12/11 03:28:25;;;;;;;280.05;61.80;;;2.70;83.10;;;;;;5015734;28;20584;-77
2020/12/11 03:30:52;;;;;;;65.03;37.45;;;2.60;89.20;;;;;;5015503;28;20194;-77
2020/12/11 03:33:18;;;;;;;34.78;31.90;;;2.50;92.80;;;;;;5015397;28;20198;-77
2020/12/11 03:35:44;;;;;;;33.33;30.42;;;2.50;93.30;;;;;;5015600;28;20198;-77
2020/12/11 03:38:11;;;;;;;34.50;31.60;;;2.40;92.80;;;;;;5015930;28;20276;-77
2020/12/11 03:40:37;;;;;;;36.72;33.45;;;2.50;91.10;;;;;;5015608;28;20673;-77
2020/12/11 03:43:04;;;;;;;32.70;29.95;;;2.50;88.40;;;;;;5015452;28;20623;-77
2020/12/11 03:45:30;;;;;;;34.55;31.75;;;2.50;87.60;;;;;;5015464;28;20220;-77
2020/12/11 03:47:57;;;;;;;36.15;33.10;;;2.40;86.60;;;;;;5015527;28;20225;-77
2020/12/11 03:50:23;;;;;;;35.63;32.72;;;2.50;86.30;;;;;;5015337;28;20201;-77
2020/12/11 03:52:50;;;;;;;34.08;31.15;;;2.50;87.00;;;;;;5015565;28;20384;-77
2020/12/11 03:55:16;;;;;;;34.72;32.08;;;2.50;86.30;;;;;;5015341;28;20201;-77
2020/12/11 03:57:42;;;;;;;56.70;34.22;;;2.40;86.00;;;;;;5015133;28;20218;-77
2020/12/11 04:00:09;;;;;;;34.25;31.35;;;2.40;87.70;;;;;;5015221;28;20198;-77
2020/12/11 04:02:36;;;;;;;37.15;34.10;;;2.40;88.50;;;;;;5015219;28;20198;-77
2020/12/11 04:05:04;;;;;;;37.92;34.63;;;2.30;87.60;;;;;;5015159;28;20193;-77
2020/12/11 04:07:30;;;;;;;545.90;88.93;;;2.30;88.60;;;;;;5015082;28;20225;-77
2020/12/11 04:09:57;;;;;;;38.83;35.03;;;2.40;90.40;;;;;;5015072;28;20198;-77
2020/12/11 04:12:23;;;;;;;36.55;33.25;;;2.40;91.30;;;;;;5014650;28;20186;-77
2020/12/11 04:14:50;;;;;;;37.63;34.20;;;2.40;89.40;;;;;;5015052;28;20556;-77
2020/12/11 04:17:16;;;;;;;38.05;34.88;;;2.30;88.90;;;;;;5014779;28;20214;-77
2020/12/11 04:19:43;;;;;;;36.20;32.95;;;2.20;89.60;;;;;;5014925;28;20194;-77
2020/12/11 04:22:10;;;;;;;38.58;35.17;;;2.20;88.50;;;;;;5013377;28;20194;-77
2020/12/11 04:24:36;;;;;;;36.58;33.38;;;2.30;87.90;;;;;;5014741;28;20210;-77
2020/12/11 04:27:03;;;;;;;39.22;35.97;;;2.20;87.00;;;;;;5014202;28;20214;-77
2020/12/11 04:29:29;;;;;;;35.85;32.95;;;2.10;86.90;;;;;;5014596;28;20209;-77
2020/12/11 04:31:57;;;;;;;37.95;34.40;;;2.10;87.40;;;;;;5014548;28;20190;-77
2020/12/11 04:34:27;;;;;;;36.42;33.05;;;2.10;87.50;;;;;;5014281;28;20216;-77
2020/12/11 04:36:55;;;;;;;37.42;34.10;;;2.00;87.60;;;;;;5014542;28;20232;-77
2020/12/11 04:39:23;;;;;;;434.00;73.18;;;2.00;88.90;;;;;;5014493;28;20194;-77
2020/12/11 04:41:51;;;;;;;39.60;36.00;;;2.00;92.70;;;;;;5014633;28;20205;-77
2020/12/11 04:44:18;;;;;;;37.13;33.78;;;2.00;95.10;;;;;;5014326;28;20218;-77
2020/12/11 04:46:44;;;;;;;38.10;34.60;;;2.20;94.10;;;;;;5013960;28;20217;-77
2020/12/11 04:49:11;;;;;;;39.97;36.17;;;2.10;91.30;;;;;;5014444;28;20198;-77
2020/12/11 04:51:47;;;;;;;37.55;34.15;;;2.10;89.10;;;;;;5014358;28;20571;-77
2020/12/11 04:54:18;;;;;;;39.75;36.10;;;2.10;88.10;;;;;;5014406;28;20294;-77
2020/12/11 04:56:48;;;;;;;38.47;35.00;;;2.00;87.50;;;;;;5014099;28;20832;-77
2020/12/11 04:59:15;;;;;;;39.83;36.05;;;1.90;87.50;;;;;;5014174;28;20194;-77
2020/12/11 05:01:42;;;;;;;40.08;35.88;;;1.80;91.30;;;;;;5014613;28;20213;-77
2020/12/11 05:04:09;;;;;;;781.92;120.55;;;1.80;94.40;;;;;;5014553;28;20214;-77
2020/12/11 05:06:35;;;;;;;41.08;37.08;;;1.70;92.80;;;;;;5013797;28;20564;-77
2020/12/11 05:09:13;;;;;;;37.50;34.15;;;1.70;92.90;;;;;;5014225;28;20284;-77
2020/12/11 05:11:41;;;;;;;38.90;34.80;;;1.60;92.10;;;;;;5013999;28;20209;-77
2020/12/11 05:14:24;;;;;;;1791.55;279.15;;;1.60;96.40;;;;;;5014074;28;20194;-77
2020/12/11 05:16:59;;;;;;;39.67;35.72;;;1.60;94.70;;;;;;5010367;28;20217;-77
2020/12/11 05:19:26;;;;;;;40.17;36.22;;;1.60;93.70;;;;;;5013886;28;20208;-77
2020/12/11 05:21:52;;;;;;;116.55;42.97;;;1.70;92.60;;;;;;5013847;28;20194;-77
2020/12/11 05:24:18;;;;;;;40.83;36.92;;;1.60;92.30;;;;;;5013816;28;20695;-77
2020/12/11 05:26:45;;;;;;;40.15;36.50;;;1.60;91.20;;;;;;5013402;28;20214;-77
2020/12/11 05:29:11;;;;;;;719.35;128.80;;;1.60;91.60;;;;;;5013026;28;20194;-77
2020/12/11 05:31:39;;;;;;;39.75;35.85;;;1.40;91.60;;;;;;5015674;28;20201;-77
2020/12/11 05:34:10;;;;;;;38.35;34.65;;;1.40;93.50;;;;;;5016668;28;20273;-78
2020/12/11 05:36:51;;;;;;;39.38;35.58;;;1.40;91.40;;;;;;5017149;28;20213;-77
2020/12/11 05:39:34;;;;;;;36.78;33.47;;;1.40;91.00;;;;;;5013556;28;20198;-77
2020/12/11 05:42:02;;;;;;;39.67;36.05;;;1.40;89.90;;;;;;5009219;28;20543;-77
2020/12/11 05:44:30;;;;;;;39.50;35.80;;;1.50;89.20;;;;;;5013208;28;20231;-77
2020/12/11 05:46:59;;;;;;;101.15;43.55;;;1.50;90.10;;;;;;5012899;28;20251;-77
2020/12/11 05:49:28;;;;;;;38.08;34.17;;;1.40;89.80;;;;;;5013433;28;20201;-77
2020/12/11 05:52:09;;;;;;;130.30;42.30;;;1.40;90.50;;;;;;5013076;28;20197;-77
2020/12/11 05:54:41;;;;;;;39.50;35.55;;;1.40;92.30;;;;;;5013089;28;20193;-77
2020/12/11 05:57:09;;;;;;;39.97;36.00;;;1.40;91.40;;;;;;5012996;28;20219;-77
2020/12/11 05:59:36;;;;;;;87.40;41.10;;;1.40;91.30;;;;;;5013237;28;20236;-77
2020/12/11 06:02:03;;;;;;;41.42;35.53;;;1.30;93.90;;;;;;5012837;28;20203;-77
2020/12/11 06:04:30;;;;;;;38.67;34.95;;;1.40;93.00;;;;;;5012867;28;20216;-77
2020/12/11 06:06:58;;;;;;;39.80;35.90;;;1.50;90.00;;;;;;5012833;28;20224;-77
2020/12/11 06:09:35;;;;;;;40.22;36.33;;;1.60;88.40;;;;;;5013150;28;20286;-77
2020/12/11 06:12:03;;;;;;;39.50;35.80;;;1.50;88.10;;;;;;5012788;28;20683;-77
2020/12/11 06:15:03;;;;;;;39.80;35.75;;;1.50;88.20;;;;;;5012938;28;20207;-77
2020/12/11 06:17:34;;;;;;;40.53;36.63;;;1.40;89.50;;;;;;4995186;28;20231;-77
2020/12/11 06:20:02;;;;;;;38.35;34.60;;;1.30;89.90;;;;;;5012801;28;20211;-77
2020/12/11 06:22:29;;;;;;;38.88;35.05;;;1.30;92.80;;;;;;5012640;28;20666;-77
2020/12/11 06:24:55;;;;;;;39.10;35.42;;;1.40;90.40;;;;;;5012898;28;20232;-77
2020/12/11 06:27:32;;;;;;;38.67;35.20;;;1.40;89.70;;;;;;5012531;28;20226;-77
2020/12/11 06:29:58;;;;;;;38.92;35.28;;;1.50;88.20;;;;;;5012808;28;20215;-77
2020/12/11 06:32:33;;;;;;;128.93;39.97;;;1.40;87.80;;;;;;5012263;28;20197;-77
2020/12/11 06:35:13;;;;;;;37.90;34.28;;;1.30;91.00;;;;;;5012666;28;20203;-77
2020/12/11 06:37:40;;;;;;;37.72;34.00;;;1.50;89.20;;;;;;5012227;28;20661;-77
2020/12/11 06:40:06;;;;;;;40.53;35.72;;;1.50;87.60;;;;;;5012870;28;20204;-77
2020/12/11 06:42:41;;;;;;;37.10;33.45;;;1.40;88.20;;;;;;5012796;28;20205;-77
2020/12/11 06:45:25;;;;;;;37.85;34.38;;;1.40;93.30;;;;;;5012584;28;20224;-77
2020/12/11 06:47:57;;;;;;;37.13;33.85;;;1.50;89.00;;;;;;5012533;28;20347;-77
2020/12/11 06:50:26;;;;;;;38.90;35.05;;;1.50;87.30;;;;;;5012681;28;20205;-77
2020/12/11 06:52:53;;;;;;;35.63;32.50;;;1.50;86.30;;;;;;5012364;28;20287;-77
2020/12/11 06:55:20;;;;;;;36.70;33.60;;;1.50;85.80;;;;;;5012526;28;20212;-77
2020/12/11 06:57:50;;;;;;;36.97;33.65;;;1.50;85.30;;;;;;5014010;28;20225;-77
2020/12/11 07:00:35;;;;;;;35.75;32.60;;;1.50;85.10;;;;;;5016567;28;20201;-77
2020/12/11 07:03:26;;;;;;;36.80;33.63;;;1.60;85.10;;;;;;5015755;28;20239;-77
2020/12/11 07:05:57;;;;;;;38.25;34.53;;;1.60;84.80;;;;;;5016169;28;20212;-77
2020/12/11 07:08:23;;;;;;;38.20;34.47;;;1.60;84.90;;;;;;5016441;28;20198;-77
2020/12/11 07:10:50;;;;;;;38.45;34.90;;;1.50;85.00;;;;;;5015845;28;20299;-77
2020/12/11 07:13:17;;;;;;;37.65;34.20;;;1.50;85.10;;;;;;5015615;28;20204;-77
2020/12/11 07:15:43;;;;;;;37.83;34.50;;;1.60;85.00;;;;;;5016115;28;20786;-77
2020/12/11 07:18:14;;;;;;;39.78;35.88;;;1.60;84.70;;;;;;5016347;28;20201;-77
2020/12/11 07:20:48;;;;;;;37.55;34.05;;;1.60;84.80;;;;;;5015778;28;20196;-77
2020/12/11 07:23:16;;;;;;;35.85;32.65;;;1.60;85.80;;;;;;5015707;28;20198;-77
2020/12/11 07:25:42;;;;;;;36.70;33.25;;;1.50;87.50;;;;;;5015851;28;20197;-77
2020/12/11 07:28:09;;;;;;;37.80;34.10;;;1.50;86.10;;;;;;5015510;28;20666;-77
2020/12/11 07:30:36;;;;;;;36.88;33.67;;;1.60;85.30;;;;;;5015630;28;20197;-77
2020/12/11 07:33:04;;;;;;;36.08;32.67;;;1.50;84.80;;;;;;5015396;28;20248;-77
2020/12/11 07:35:30;;;;;;;34.25;31.10;;;1.60;84.80;;;;;;5015655;28;20211;-77
2020/12/11 07:37:57;;;;;;;37.28;33.70;;;1.60;85.40;;;;;;5015609;28;20228;-77
2020/12/11 07:40:24;;;;;;;34.50;31.40;;;1.70;84.50;;;;;;5015671;28;20201;-77
2020/12/11 07:42:52;;;;;;;37.13;33.72;;;1.60;83.90;;;;;;5015706;28;20212;-77
2020/12/11 07:45:29;;;;;;;36.97;33.17;;;1.60;84.40;;;;;;5015336;28;20278;-77
2020/12/11 07:47:56;;;;;;;36.42;33.13;;;1.70;84.30;;;;;;5015328;28;20220;-77
2020/12/11 07:50:23;;;;;;;35.95;32.65;;;1.70;84.20;;;;;;5015546;28;20212;-77
2020/12/11 07:52:52;;;;;;;37.63;34.08;;;1.60;84.00;;;;;;5015340;28;20284;-77
2020/12/11 07:55:20;;;;;;;36.30;33.00;;;1.60;84.20;;;;;;5015152;28;20188;-77
2020/12/11 07:57:50;;;;;;;36.42;33.17;;;1.60;84.80;;;;;;5014905;28;20695;-77
2020/12/11 08:00:17;;;;;;;36.58;33.47;;;1.80;84.60;;;;;;5014815;28;20202;-77
2020/12/11 08:02:43;;;;;;;35.78;32.40;;;1.90;83.60;;;;;;5014062;28;20201;-77
2020/12/11 08:05:10;;;;;;;36.45;33.03;;;2.00;83.20;;;;;;5014825;28;20221;-77
2020/12/11 08:07:37;;;;;;;37.10;33.85;;;1.90;83.50;;;;;;5013942;28;20304;-76
2020/12/11 08:10:08;;;;;;;36.17;32.90;;;2.00;83.30;;;;;;5015141;28;20656;-77
2020/12/11 08:12:36;;;;;;;36.83;33.53;;;2.00;83.10;;;;;;5015080;28;20656;-77
2020/12/11 08:15:03;;;;;;;39.78;36.08;;;2.00;83.10;;;;;;5014981;28;20190;-77
2020/12/11 08:17:31;;;;;;;36.78;33.35;;;2.00;86.20;;;;;;5014865;28;20214;-77
2020/12/11 08:19:59;;;;;;;34.67;31.52;;;2.10;84.30;;;;;;5015008;28;20202;-77
2020/12/11 08:22:32;;;;;;;37.80;34.65;;;2.20;82.70;;;;;;5014921;28;20208;-77
2020/12/11 08:24:59;;;;;;;37.60;34.40;;;2.30;82.10;;;;;;5014733;28;20324;-77
2020/12/11 08:27:27;;;;;;;37.95;34.47;;;2.30;82.00;;;;;;5014819;28;20278;-77
2020/12/11 08:30:04;;;;;;;38.53;34.88;;;2.20;81.80;;;;;;5014999;28;20717;-77
2020/12/11 08:32:31;;;;;;;38.03;34.53;;;2.20;82.20;;;;;;5014352;28;20198;-77
2020/12/11 08:34:57;;;;;;;35.95;32.65;;;2.20;82.80;;;;;;5014745;28;20246;-77
2020/12/11 08:37:24;;;;;;;36.28;33.25;;;2.40;82.40;;;;;;5014097;28;20220;-77
2020/12/11 08:39:50;;;;;;;36.47;32.97;;;2.40;83.00;;;;;;5014803;28;20198;-77
2020/12/11 08:42:22;;;;;;;38.55;34.95;;;2.40;88.20;;;;;;5014487;28;20191;-77
2020/12/11 08:45:04;;;;;;;78.20;35.47;;;2.40;86.20;;;;;;5014480;28;20782;-77
2020/12/11 08:47:50;;;;;;;36.47;33.08;;;2.60;88.30;;;;;;5014119;28;20699;-77
2020/12/11 08:50:25;;;;;;;75.30;37.28;;;2.70;85.70;;;;;;5014534;28;20229;-77
2020/12/11 08:52:52;;;;;;;48.97;35.25;;;2.70;85.70;;;;;;5014382;28;20272;-77
2020/12/11 08:55:18;;;;;;;38.60;35.10;;;2.90;87.90;;;;;;5014249;28;20198;-77
2020/12/11 08:57:44;;;;;;;37.05;33.28;;;3.10;84.50;;;;;;5013838;28;20214;-77
2020/12/11 09:00:11;;;;;;;38.63;34.88;;;3.20;84.90;;;;;;5014251;28;20224;-77
2020/12/11 09:02:38;;;;;;;38.33;34.90;;;3.30;85.60;;;;;;5014628;28;20191;-77
2020/12/11 09:05:05;;;;;;;37.33;34.13;;;3.50;82.40;;;;;;5014072;28;20224;-77
2020/12/11 09:07:31;;;;;;;37.60;34.35;;;3.60;81.40;;;;;;5014153;28;20711;-77
2020/12/11 09:09:58;;;;;;;37.47;34.22;;;3.70;79.70;;;;;;5014580;28;20221;-77
2020/12/11 09:12:24;;;;;;;37.63;34.47;;;3.80;78.20;;;;;;5014467;28;20201;-77
2020/12/11 09:14:50;;;;;;;36.45;33.17;;;3.90;77.30;;;;;;5014629;28;20201;-77
2020/12/11 09:17:19;;;;;;;35.92;33.08;;;3.90;77.20;;;;;;5013711;28;20217;-77
2020/12/11 09:19:46;;;;;;;38.13;34.90;;;4.10;76.60;;;;;;5013516;28;20194;-77
2020/12/11 09:22:12;;;;;;;36.08;32.97;;;4.10;76.00;;;;;;5014414;28;20209;-77
2020/12/11 09:24:39;;;;;;;36.42;33.33;;;4.10;76.70;;;;;;5013772;28;20228;-77
2020/12/11 09:27:07;;;;;;;35.97;32.83;;;4.20;76.50;;;;;;5013952;28;20301;-77
2020/12/11 09:29:36;;;;;;;38.35;35.22;;;4.10;79.10;;;;;;5013339;28;20206;-77
2020/12/11 09:32:04;;;;;;;36.15;33.05;;;4.10;77.90;;;;;;5014167;28;20212;-77
2020/12/11 09:34:32;;;;;;;36.17;33.10;;;4.30;76.80;;;;;;5013661;28;20216;-77
2020/12/11 09:37:00;;;;;;;35.28;32.45;;;4.30;76.70;;;;;;5013734;28;20236;-77
2020/12/11 09:39:26;;;;;;;35.92;32.88;;;4.40;77.30;;;;;;5013896;28;20201;-77
2020/12/11 09:41:58;;;;;;;34.88;31.80;;;4.40;76.00;;;;;;5013784;28;20201;-77
2020/12/11 09:44:52;;;;;;;60.80;36.47;;;4.50;76.20;;;;;;5013356;28;20213;-77
2020/12/11 09:47:41;;;;;;;35.42;32.40;;;4.50;82.40;;;;;;5013383;28;20232;-77
2020/12/11 09:52:56;;;;;;;35.83;32.88;;;4.70;78.70;;;;;;5011196;28;20190;-77
2020/12/11 09:55:23;;;;;;;34.70;31.90;;;4.80;78.50;;;;;;5013334;28;20200;-78
2020/12/11 09:57:50;;;;;;;35.88;32.88;;;4.80;75.50;;;;;;5013238;28;20240;-77
2020/12/11 10:00:16;;;;;;;34.63;31.83;;;4.90;75.60;;;;;;5012988;28;20224;-77
2020/12/11 10:02:54;;;;;;;33.17;30.63;;;5.00;74.40;;;;;;5013193;28;20627;-77
2020/12/11 10:05:20;;;;;;;35.97;33.05;;;4.90;74.30;;;;;;5012705;28;20277;-78
2020/12/11 10:07:47;;;;;;;34.60;31.75;;;5.10;74.10;;;;;;5013064;28;20705;-77
2020/12/11 10:10:14;;;;;;;34.97;32.47;;;5.30;73.80;;;;;;5012909;28;20704;-77
2020/12/11 10:12:40;;;;;;;34.38;31.42;;;5.40;76.00;;;;;;5012926;28;20611;-77
2020/12/11 10:15:08;;;;;;;35.10;32.00;;;5.60;73.40;;;;;;5013074;28;20199;-78
2020/12/11 10:17:34;;;;;;;35.55;32.70;;;5.60;76.40;;;;;;5013295;28;20220;-77
2020/12/11 10:20:00;;;;;;;33.97;31.27;;;5.70;75.40;;;;;;5013635;28;20570;-77
2020/12/11 10:22:27;;;;;;;35.70;32.60;;;5.70;73.90;;;;;;5013211;28;20208;-77
2020/12/11 10:24:53;;;;;;;33.13;30.60;;;5.80;73.20;;;;;;5013098;28;20229;-77
2020/12/11 10:27:21;;;;;;;34.53;31.73;;;5.80;74.80;;;;;;5012508;28;20221;-77
2020/12/11 10:29:47;;;;;;;37.13;34.28;;;5.80;73.30;;;;;;5013239;28;20240;-77
2020/12/11 10:32:14;;;;;;;36.53;33.90;;;6.00;72.70;;;;;;5014724;28;20226;-77
2020/12/11 10:34:40;;;;;;;35.45;32.55;;;5.90;74.70;;;;;;5017040;28;20194;-77
2020/12/11 10:37:07;;;;;;;33.95;31.25;;;6.00;72.10;;;;;;5016719;28;20286;-77
2020/12/11 10:39:34;;;;;;;34.72;32.03;;;6.00;72.30;;;;;;5016961;28;20205;-77
2020/12/11 10:42:01;;;;;;;35.15;32.05;;;5.90;72.60;;;;;;5016941;28;20200;-78
2020/12/11 10:44:29;;;;;;;34.95;32.45;;;5.90;71.80;;;;;;5017076;28;20698;-77
2020/12/11 10:46:55;;;;;;;33.70;30.90;;;5.80;72.60;;;;;;5016788;28;20221;-77
2020/12/11 10:49:22;;;;;;;39.42;35.38;;;5.80;72.30;;;;;;5016715;28;20274;-77
2020/12/11 10:51:48;;;;;;;34.90;32.17;;;5.90;72.30;;;;;;5016574;28;20537;-77
2020/12/11 10:54:17;;;;;;;36.17;33.38;;;6.10;71.60;;;;;;5016396;28;20288;-77
2020/12/11 10:56:44;;;;;;;34.80;31.73;;;6.00;71.70;;;;;;5016221;28;20218;-77
2020/12/11 10:59:10;;;;;;;34.03;31.42;;;6.10;71.50;;;;;;5016863;28;20202;-77
2020/12/11 11:01:37;;;;;;;34.33;31.52;;;6.20;72.70;;;;;;5016055;28;20288;-77
2020/12/11 11:04:05;;;;;;;37.30;34.30;;;6.20;73.10;;;;;;5015607;28;20210;-77
2020/12/11 11:06:34;;;;;;;35.50;32.50;;;6.20;77.10;;;;;;5015976;28;20276;-77
2020/12/11 11:09:12;;;;;;;34.85;31.85;;;6.30;72.70;;;;;;5016039;28;20190;-77
2020/12/11 11:11:41;;;;;;;34.72;32.03;;;6.20;73.70;;;;;;5016332;28;20201;-77
2020/12/11 11:14:34;;;;;;;35.67;32.60;;;6.40;70.30;;;;;;5016070;28;20202;-77
2020/12/11 11:19:52;;;;;;;34.17;31.48;;;6.30;70.20;;;;;;5017033;28;20269;-77
2020/12/11 11:22:27;;;;;;;33.45;30.83;;;6.00;70.70;;;;;;5017251;28;20206;-77
2020/12/11 11:25:27;;;;;;;32.75;30.33;;;6.10;71.00;;;;;;5016339;28;20311;-77
2020/12/11 11:27:54;;;;;;;36.47;33.67;;;6.00;72.40;;;;;;5014852;28;20228;-77
2020/12/11 11:30:23;;;;;;;35.10;32.17;;;6.20;72.00;;;;;;5016349;28;20193;-78
2020/12/11 11:32:51;;;;;;;34.50;32.10;;;6.20;75.40;;;;;;5015679;28;20202;-77
2020/12/11 11:35:18;;;;;;;34.90;32.20;;;6.20;75.90;;;;;;5015875;28;20190;-77
2020/12/11 11:37:45;;;;;;;35.40;31.45;;;6.20;73.90;;;;;;5015435;28;20698;-77
2020/12/11 11:40:12;;;;;;;34.63;32.00;;;6.20;76.60;;;;;;5015982;28;20201;-77
2020/12/11 11:42:38;;;;;;;36.67;33.45;;;6.10;76.90;;;;;;5015051;28;20290;-77
2020/12/11 11:45:06;;;;;;;35.85;32.95;;;6.10;72.40;;;;;;5015502;28;20314;-77
2020/12/11 11:47:34;;;;;;;33.78;31.23;;;6.20;72.00;;;;;;5015234;28;20214;-77
2020/12/11 11:52:48;;;;;;;34.45;31.55;;;5.90;72.30;;;;;;5014892;28;20269;-77
2020/12/11 11:55:14;;;;;;;35.53;32.78;;;5.80;72.80;;;;;;5015545;28;20229;-77
2020/12/11 11:57:41;;;;;;;33.97;31.38;;;5.90;73.40;;;;;;5014805;28;20674;-77
2020/12/11 12:00:09;;;;;;;34.90;32.20;;;5.90;72.90;;;;;;5015317;28;20198;-77
2020/12/11 12:02:36;;;;;;;33.92;31.17;;;5.90;76.10;;;;;;5015451;28;20695;-77
2020/12/11 12:05:04;;;;;;;33.35;30.85;;;6.10;73.00;;;;;;5015131;28;20218;-77
2020/12/11 12:07:32;;;;;;;33.55;30.95;;;6.10;76.10;;;;;;5014936;28;20225;-77
2020/12/11 12:09:59;;;;;;;33.65;31.15;;;6.20;74.50;;;;;;5015162;28;20206;-77
2020/12/11 12:12:25;;;;;;;35.00;32.20;;;6.40;71.80;;;;;;5015310;28;20205;-77
2020/12/11 12:14:52;;;;;;;36.05;33.20;;;6.00;73.20;;;;;;5015294;28;20575;-77
2020/12/11 12:17:24;;;;;;;34.97;32.38;;;6.20;72.40;;;;;;5014352;28;20217;-77
2020/12/11 12:19:54;;;;;;;35.40;32.65;;;6.30;72.70;;;;;;5014966;28;20221;-78
2020/12/11 12:30:42;;;;;;;34.80;31.80;;;6.30;74.50;;;;;;5016930;28;20596;-77
2020/12/11 12:38:59;;;;;;;35.47;32.38;;;6.50;72.50;;;;;;4973891;28;20610;-77
2020/12/11 12:44:10;;;;;;;35.13;32.38;;;6.50;71.20;;;;;;5014623;28;20689;-77
2020/12/11 12:46:36;;;;;;;33.83;31.20;;;6.40;71.70;;;;;;5014171;28;20332;-77
2020/12/11 12:49:03;;;;;;;34.70;31.98;;;6.40;74.40;;;;;;5014683;28;20194;-77
2020/12/11 12:51:29;;;;;;;34.80;31.70;;;6.40;74.90;;;;;;5014285;28;20198;-77
2020/12/11 12:53:56;;;;;;;34.45;31.65;;;6.40;73.90;;;;;;5014464;28;20200;-77
2020/12/11 12:56:36;;;;;;;35.08;32.15;;;6.40;72.80;;;;;;5014053;28;20214;-77
2020/12/11 12:59:07;;;;;;;38.22;35.13;;;6.30;72.90;;;;;;5014465;28;20205;-77
2020/12/11 13:01:41;;;;;;;35.67;32.65;;;6.40;72.00;;;;;;4999712;28;20271;-77
2020/12/11 13:04:21;;;;;;;36.17;33.38;;;6.40;72.50;;;;;;5013981;28;20221;-77
2020/12/11 13:06:48;;;;;;;35.13;32.42;;;6.30;72.50;;;;;;5013470;28;20227;-77